Time;durP1;ratioP1;P1;durP2;ratioP2;P2;SDS_P1;SDS_P2;PMS_P1;PMS_P2;Temp;Humidity;BMP_temperature;BMP_pressure;BME280_temperature;BME280_humidity;BME280_pressure;Samples;Min_cycle;Max_cycle;Signal;HPM_P1;HPM_P2
2024/03/02 00:09:48;;;;;;;;;;;7.70;99.90;;;;;;6696129;88;20639;-80
2024/03/02 00:19:48;;;;;;;;;;;8.00;99.90;;;;;;6696339;88;20085;-81
2024/03/02 00:29:49;;;;;;;;;;;8.10;99.90;;;;;;6695223;88;20111;-80
2024/03/02 00:39:49;;;;;;;;;;;8.20;99.90;;;;;;6695463;88;20048;-80
2024/03/02 00:49:50;;;;;;;;;;;8.20;99.90;;;;;;6695708;88;20064;-80
2024/03/02 00:59:50;;;;;;;;;;;8.10;99.90;;;;;;6696140;88;20227;-80
2024/03/02 01:09:51;;;;;;;;;;;8.00;99.90;;;;;;6695424;88;20044;-80
2024/03/02 01:19:51;;;;;;;;;;;8.00;99.90;;;;;;6690869;89;20055;-80
2024/03/02 01:29:51;;;;;;;;;;;7.90;99.90;;;;;;6694272;88;20063;-79
2024/03/02 01:39:52;;;;;;;;;;;8.00;99.90;;;;;;6694314;88;20064;-80
2024/03/02 01:49:52;;;;;;;;;;;8.10;99.90;;;;;;6693668;88;20523;-80
2024/03/02 01:59:53;;;;;;;;;;;8.10;99.90;;;;;;6694133;88;20063;-80
2024/03/02 02:09:53;;;;;;;;;;;8.00;99.90;;;;;;6694008;88;20161;-80
2024/03/02 02:19:54;;;;;;;;;;;7.90;99.90;;;;;;6706812;88;20500;-77
2024/03/02 02:29:56;;;;;;;;;;;7.90;99.90;;;;;;6711124;88;20143;-78
2024/03/02 02:39:56;;;;;;;;;;;7.70;99.90;;;;;;6711879;88;20068;-78
2024/03/02 03:00:38;;;;;;;;;;;7.50;99.90;;;;;;6708637;88;20056;-81
2024/03/02 03:10:39;;;;;;;;;;;7.50;99.90;;;;;;6708213;88;20728;-83
2024/03/02 03:20:39;;;;;;;;;;;7.50;99.90;;;;;;6718487;88;20055;-83
2024/03/02 03:30:40;;;;;;;;;;;7.50;99.90;;;;;;6718196;88;20087;-83
2024/03/02 03:40:41;;;;;;;;;;;7.40;99.90;;;;;;6714293;88;20030;-83
2024/03/02 03:50:41;;;;;;;;;;;7.40;99.90;;;;;;6714244;88;20028;-83
2024/03/02 04:00:42;;;;;;;;;;;7.60;99.90;;;;;;6714028;88;20044;-82
2024/03/02 04:10:43;;;;;;;;;;;7.50;99.90;;;;;;6717782;88;20043;-82
2024/03/02 04:20:43;;;;;;;;;;;7.40;99.90;;;;;;6716096;88;20100;-82
2024/03/02 04:30:44;;;;;;;;;;;7.20;99.90;;;;;;6715614;88;20072;-83
2024/03/02 04:40:44;;;;;;;;;;;7.10;99.90;;;;;;6715217;88;20020;-83
2024/03/02 04:50:45;;;;;;;;;;;7.00;99.90;;;;;;6715083;88;20042;-81
2024/03/02 05:00:49;;;;;;;;;;;7.00;99.90;;;;;;6684632;89;20044;-83
2024/03/02 05:10:49;;;;;;;;;;;7.10;99.90;;;;;;6680950;89;20171;-82
2024/03/02 05:20:50;;;;;;;;;;;7.00;99.90;;;;;;6680948;89;20059;-83
2024/03/02 05:30:50;;;;;;;;;;;7.00;99.90;;;;;;6682970;89;20044;-82
2024/03/02 05:40:51;;;;;;;;;;;6.80;99.90;;;;;;6712623;88;20127;-82
2024/03/02 05:50:51;;;;;;;;;;;6.80;99.90;;;;;;6716571;88;20020;-82
2024/03/02 06:00:52;;;;;;;;;;;6.80;99.90;;;;;;6716757;88;20118;-81
2024/03/02 06:10:52;;;;;;;;;;;6.70;99.90;;;;;;6716830;88;20051;-82
2024/03/02 06:20:53;;;;;;;;;;;6.70;99.90;;;;;;6716486;88;20212;-83
2024/03/02 06:30:53;;;;;;;;;;;6.60;99.90;;;;;;6680097;89;20198;-82
2024/03/02 06:40:55;;;;;;;;;;;6.70;99.90;;;;;;6663421;89;20193;-82
2024/03/02 06:50:56;;;;;;;;;;;6.70;99.90;;;;;;6671305;89;20128;-82
2024/03/02 07:00:56;;;;;;;;;;;7.00;99.90;;;;;;6632224;89;20085;-80
2024/03/02 07:10:57;;;;;;;;;;;7.20;99.90;;;;;;6632315;89;20739;-82
2024/03/02 07:21:00;;;;;;;;;;;7.20;99.90;;;;;;6661855;89;20519;-81
2024/03/02 07:31:01;;;;;;;;;;;7.50;99.90;;;;;;6693259;89;20144;-81
2024/03/02 07:41:04;;;;;;;;;;;7.80;99.90;;;;;;6695230;89;20513;-82
2024/03/02 07:51:04;;;;;;;;;;;8.10;99.90;;;;;;6691602;89;20080;-78
2024/03/02 08:01:05;;;;;;;;;;;8.20;99.90;;;;;;6674896;89;20113;-78
2024/03/02 08:11:05;;;;;;;;;;;9.10;99.90;;;;;;6682622;89;20058;-78
2024/03/02 08:21:07;;;;;;;;;;;9.80;99.90;;;;;;6707861;88;20077;-78
2024/03/02 08:31:08;;;;;;;;;;;9.90;99.90;;;;;;6710618;88;20722;-83
2024/03/02 08:41:09;;;;;;;;;;;10.40;99.90;;;;;;6666808;89;20132;-78
2024/03/02 08:51:10;;;;;;;;;;;10.30;99.90;;;;;;6691946;88;20204;-78
2024/03/02 09:01:10;;;;;;;;;;;10.50;99.90;;;;;;6702859;88;20061;-79
2024/03/02 09:11:11;;;;;;;;;;;10.60;99.90;;;;;;6694033;89;20045;-79
2024/03/02 09:21:12;;;;;;;;;;;10.70;99.90;;;;;;6706384;88;20111;-77
2024/03/02 09:31:12;;;;;;;;;;;11.30;99.90;;;;;;6692595;88;20072;-77
2024/03/02 09:41:13;;;;;;;;;;;11.90;99.90;;;;;;6691817;88;20241;-79
2024/03/02 09:51:14;;;;;;;;;;;12.00;99.90;;;;;;6691165;88;20187;-76
2024/03/02 10:01:14;;;;;;;;;;;12.20;99.90;;;;;;6688656;88;20105;-77
2024/03/02 10:11:28;;;;;;;;;;;12.50;99.90;;;;;;6690032;88;20138;-76
2024/03/02 10:21:28;;;;;;;;;;;12.50;99.90;;;;;;6682678;88;20081;-78
2024/03/02 10:31:29;;;;;;;;;;;13.00;99.90;;;;;;6685025;88;20898;-76
2024/03/02 10:41:34;;;;;;;;;;;13.60;99.90;;;;;;6697437;77;20059;-76
2024/03/02 10:51:36;;;;;;;;;;;13.70;99.90;;;;;;6718431;88;20509;-78
2024/03/02 11:01:38;;;;;;;;;;;13.60;99.90;;;;;;6729043;88;20182;-77
2024/03/02 11:11:43;;;;;;;;;;;14.60;99.90;;;;;;6714442;88;20513;-77
2024/03/02 11:21:44;;;;;;;;;;;13.50;99.90;;;;;;6707361;88;20087;-78
2024/03/02 11:31:59;;;;;;;;;;;13.20;99.90;;;;;;6718294;88;20087;-76
2024/03/02 11:41:59;;;;;;;;;;;13.20;99.90;;;;;;6715510;88;20133;-78
2024/03/02 11:52:00;;;;;;;;;;;13.40;99.90;;;;;;6717296;88;20063;-77
2024/03/02 12:02:02;;;;;;;;;;;13.60;99.90;;;;;;6721107;88;20116;-78
2024/03/02 12:12:09;;;;;;;;;;;13.30;99.90;;;;;;6714938;88;20056;-77
2024/03/02 12:22:10;;;;;;;;;;;13.30;99.90;;;;;;6711286;88;20200;-75
2024/03/02 12:32:10;;;;;;;;;;;13.90;99.90;;;;;;6712021;88;20112;-76
2024/03/02 12:42:10;;;;;;;;;;;13.40;99.90;;;;;;6714538;88;20083;-76
2024/03/02 12:52:14;;;;;;;;;;;14.00;99.90;;;;;;6725736;88;20536;-76
2024/03/02 13:02:18;;;;;;;;;;;14.80;99.90;;;;;;6726636;88;20054;-76
2024/03/02 13:12:22;;;;;;;;;;;14.50;99.90;;;;;;6720653;88;20058;-78
2024/03/02 13:22:23;;;;;;;;;;;14.20;99.90;;;;;;6721033;88;20644;-75
2024/03/02 13:32:24;;;;;;;;;;;14.10;99.90;;;;;;6709985;88;20261;-76
2024/03/02 13:42:24;;;;;;;;;;;14.40;99.90;;;;;;6711301;88;20090;-77
2024/03/02 13:52:26;;;;;;;;;;;14.40;99.90;;;;;;6714469;88;20197;-77
2024/03/02 14:02:26;;;;;;;;;;;15.30;99.90;;;;;;6714871;88;20102;-76
2024/03/02 14:12:27;;;;;;;;;;;15.50;99.90;;;;;;6714536;88;20055;-76
2024/03/02 14:22:27;;;;;;;;;;;14.80;99.90;;;;;;6713766;88;20551;-76
2024/03/02 14:32:28;;;;;;;;;;;14.60;99.90;;;;;;6713368;88;20052;-75
2024/03/02 14:42:31;;;;;;;;;;;13.90;99.90;;;;;;6713781;88;20081;-76
2024/03/02 14:52:32;;;;;;;;;;;13.80;99.90;;;;;;6712024;88;20097;-76
2024/03/02 15:02:33;;;;;;;;;;;13.90;99.90;;;;;;6711463;88;20486;-77
2024/03/02 15:12:33;;;;;;;;;;;13.90;99.90;;;;;;6718940;88;20063;-76
2024/03/02 15:22:34;;;;;;;;;;;14.00;99.90;;;;;;6732949;88;20039;-79
2024/03/02 15:32:36;;;;;;;;;;;14.00;99.90;;;;;;6733675;88;20116;-80
2024/03/02 15:42:37;;;;;;;;;;;13.90;99.90;;;;;;6733695;88;20082;-81
2024/03/02 15:52:37;;;;;;;;;;;13.80;99.90;;;;;;6745307;88;20074;-80
2024/03/02 16:02:38;;;;;;;;;;;13.70;99.90;;;;;;6740944;88;20491;-79
2024/03/02 16:12:38;;;;;;;;;;;13.70;99.90;;;;;;6732097;88;20577;-81
2024/03/02 16:22:39;;;;;;;;;;;13.70;99.90;;;;;;6728076;88;20064;-81
2024/03/02 16:32:39;;;;;;;;;;;13.80;99.90;;;;;;6741523;88;20105;-78
2024/03/02 16:42:40;;;;;;;;;;;13.70;99.90;;;;;;6733639;77;20532;-78
2024/03/02 16:52:40;;;;;;;;;;;13.70;99.90;;;;;;6710583;88;20059;-79
2024/03/02 17:02:41;;;;;;;;;;;13.50;99.90;;;;;;6703439;88;20672;-78
2024/03/02 17:12:41;;;;;;;;;;;13.50;99.90;;;;;;6707862;88;20068;-79
2024/03/02 17:22:42;;;;;;;;;;;13.40;99.90;;;;;;6710838;88;20146;-79
2024/03/02 17:32:42;;;;;;;;;;;13.40;99.90;;;;;;6705534;88;20071;-79
2024/03/02 17:42:43;;;;;;;;;;;13.40;99.90;;;;;;6706829;88;20068;-77
2024/03/02 17:52:44;;;;;;;;;;;13.40;99.90;;;;;;6709914;88;20055;-79
2024/03/02 18:02:44;;;;;;;;;;;13.30;99.90;;;;;;6719562;88;20063;-77
2024/03/02 18:12:45;;;;;;;;;;;13.40;99.90;;;;;;6712930;88;20497;-78
2024/03/02 18:22:46;;;;;;;;;;;13.30;99.90;;;;;;6706229;88;20058;-79
2024/03/02 18:32:47;;;;;;;;;;;13.30;99.90;;;;;;6710940;88;20064;-78
2024/03/02 18:42:47;;;;;;;;;;;13.30;99.90;;;;;;6706939;88;20117;-79
2024/03/02 18:52:49;;;;;;;;;;;13.10;99.90;;;;;;6718155;88;20480;-79
2024/03/02 19:02:49;;;;;;;;;;;13.00;99.90;;;;;;6710551;88;20048;-78
2024/03/02 19:12:50;;;;;;;;;;;13.00;99.90;;;;;;6704615;88;20126;-79
2024/03/02 19:22:50;;;;;;;;;;;12.90;99.90;;;;;;6704603;88;20064;-81
2024/03/02 19:32:51;;;;;;;;;;;12.80;99.90;;;;;;6700436;88;20059;-83
2024/03/02 19:42:51;;;;;;;;;;;12.70;99.90;;;;;;6718253;88;20205;-82
2024/03/02 19:52:52;;;;;;;;;;;12.70;99.90;;;;;;6718259;88;20068;-82
2024/03/02 20:02:52;;;;;;;;;;;12.70;99.90;;;;;;6717943;88;20211;-81
2024/03/02 20:12:53;;;;;;;;;;;12.50;99.90;;;;;;6744041;88;20072;-79
2024/03/02 20:22:53;;;;;;;;;;;12.50;99.90;;;;;;6744400;88;20057;-79
2024/03/02 20:32:54;;;;;;;;;;;12.40;99.90;;;;;;6743894;88;20064;-80
2024/03/02 20:42:57;;;;;;;;;;;12.40;99.90;;;;;;6735406;88;20080;-80
2024/03/02 20:53:00;;;;;;;;;;;12.30;99.90;;;;;;6733985;88;20502;-80
2024/03/02 21:03:00;;;;;;;;;;;12.00;99.90;;;;;;6724489;88;20648;-79
2024/03/02 21:13:01;;;;;;;;;;;11.80;99.90;;;;;;6725986;88;20066;-78
2024/03/02 21:23:02;;;;;;;;;;;12.00;99.90;;;;;;6720772;88;20586;-78
2024/03/02 21:33:05;;;;;;;;;;;11.80;99.90;;;;;;6721121;88;20050;-78
2024/03/02 21:43:06;;;;;;;;;;;11.80;99.90;;;;;;6719956;88;20177;-78
2024/03/02 21:53:06;;;;;;;;;;;11.70;99.90;;;;;;6721864;88;20156;-77
2024/03/02 22:03:07;;;;;;;;;;;11.50;99.90;;;;;;6719022;88;20080;-77
2024/03/02 22:13:07;;;;;;;;;;;11.40;99.90;;;;;;6721373;88;20204;-77
2024/03/02 22:23:08;;;;;;;;;;;11.50;99.90;;;;;;6732459;88;20067;-78
2024/03/02 22:33:08;;;;;;;;;;;11.60;99.90;;;;;;6728292;88;20080;-78
2024/03/02 22:43:09;;;;;;;;;;;11.60;99.90;;;;;;6721344;77;20092;-77
2024/03/02 22:53:09;;;;;;;;;;;11.50;99.90;;;;;;6708121;88;20219;-76
2024/03/02 23:03:10;;;;;;;;;;;11.50;99.90;;;;;;6714356;88;20136;-77
2024/03/02 23:13:10;;;;;;;;;;;11.60;99.90;;;;;;6714594;88;20064;-77
2024/03/02 23:23:11;;;;;;;;;;;11.50;99.90;;;;;;6707210;88;20064;-77
2024/03/02 23:33:12;;;;;;;;;;;11.30;99.90;;;;;;6707790;88;20752;-77
2024/03/02 23:43:13;;;;;;;;;;;11.10;99.90;;;;;;6713795;88;20108;-78
2024/03/02 23:53:13;;;;;;;;;;;11.10;99.90;;;;;;6705156;88;20074;-78
